sensor_id;sensor_type;location;lat;lon;timestamp;pressure;altitude;pressure_sealevel;temperature
70050;BMP180;57391;51.306;22.680;2023-07-29T00:01:57;98954.80;;;18.00
70050;BMP180;57391;51.306;22.680;2023-07-29T00:04:23;98957.20;;;18.00
70050;BMP180;57391;51.306;22.680;2023-07-29T00:06:50;98956.80;;;18.00
70050;BMP180;57391;51.306;22.680;2023-07-29T00:09:17;98954.00;;;17.98
70050;BMP180;57391;51.306;22.680;2023-07-29T00:11:44;98955.80;;;17.90
70050;BMP180;57391;51.306;22.680;2023-07-29T00:14:11;98959.40;;;17.90
70050;BMP180;57391;51.306;22.680;2023-07-29T00:16:37;98958.40;;;17.90
70050;BMP180;57391;51.306;22.680;2023-07-29T00:19:04;98958.20;;;17.90
70050;BMP180;57391;51.306;22.680;2023-07-29T00:21:31;98959.80;;;17.88
70050;BMP180;57391;51.306;22.680;2023-07-29T00:23:58;98960.80;;;17.82
70050;BMP180;57391;51.306;22.680;2023-07-29T00:26:25;98962.60;;;17.80
70050;BMP180;57391;51.306;22.680;2023-07-29T00:28:57;98969.40;;;17.80
70050;BMP180;57391;51.306;22.680;2023-07-29T00:31:24;98966.60;;;17.80
70050;BMP180;57391;51.306;22.680;2023-07-29T00:33:51;98966.00;;;17.80
70050;BMP180;57391;51.306;22.680;2023-07-29T00:36:19;98964.60;;;17.74
70050;BMP180;57391;51.306;22.680;2023-07-29T00:38:47;98967.80;;;17.70
70050;BMP180;57391;51.306;22.680;2023-07-29T00:41:15;98969.80;;;17.70
70050;BMP180;57391;51.306;22.680;2023-07-29T00:43:42;98971.80;;;17.70
70050;BMP180;57391;51.306;22.680;2023-07-29T00:46:09;98971.20;;;17.70
70050;BMP180;57391;51.306;22.680;2023-07-29T00:48:39;98967.40;;;17.70
70050;BMP180;57391;51.306;22.680;2023-07-29T00:51:06;98966.00;;;17.70
70050;BMP180;57391;51.306;22.680;2023-07-29T00:53:33;98964.80;;;17.70
70050;BMP180;57391;51.306;22.680;2023-07-29T00:56:00;98970.20;;;17.70
70050;BMP180;57391;51.306;22.680;2023-07-29T00:58:27;98973.80;;;17.70
70050;BMP180;57391;51.306;22.680;2023-07-29T01:00:54;98975.60;;;17.66
70050;BMP180;57391;51.306;22.680;2023-07-29T01:03:23;98979.60;;;17.62
70050;BMP180;57391;51.306;22.680;2023-07-29T01:06:26;98984.60;;;17.60
70050;BMP180;57391;51.306;22.680;2023-07-29T01:09:10;98981.00;;;17.60
70050;BMP180;57391;51.306;22.680;2023-07-29T01:17:09;98983.60;;;17.60
70050;BMP180;57391;51.306;22.680;2023-07-29T01:20:07;98986.40;;;17.52
70050;BMP180;57391;51.306;22.680;2023-07-29T01:22:36;98987.00;;;17.50
70050;BMP180;57391;51.306;22.680;2023-07-29T01:25:04;98992.20;;;17.50
70050;BMP180;57391;51.306;22.680;2023-07-29T01:27:31;98995.60;;;17.50
70050;BMP180;57391;51.306;22.680;2023-07-29T01:30:01;98995.80;;;17.50
70050;BMP180;57391;51.306;22.680;2023-07-29T01:32:53;98993.60;;;17.50
70050;BMP180;57391;51.306;22.680;2023-07-29T01:35:46;98994.80;;;17.46
70050;BMP180;57391;51.306;22.680;2023-07-29T01:38:19;98994.80;;;17.40
70050;BMP180;57391;51.306;22.680;2023-07-29T01:40:50;98992.00;;;17.42
70050;BMP180;57391;51.306;22.680;2023-07-29T01:43:17;98988.80;;;17.42
70050;BMP180;57391;51.306;22.680;2023-07-29T01:45:50;98991.20;;;17.48
70050;BMP180;57391;51.306;22.680;2023-07-29T01:48:17;98993.00;;;17.48
70050;BMP180;57391;51.306;22.680;2023-07-29T01:50:44;98993.20;;;17.50
70050;BMP180;57391;51.306;22.680;2023-07-29T01:53:11;98991.20;;;17.50
70050;BMP180;57391;51.306;22.680;2023-07-29T01:55:40;98990.80;;;17.50
70050;BMP180;57391;51.306;22.680;2023-07-29T01:58:07;98999.00;;;17.50
70050;BMP180;57391;51.306;22.680;2023-07-29T02:00:36;98997.60;;;17.56
70050;BMP180;57391;51.306;22.680;2023-07-29T02:03:03;99001.40;;;17.60
70050;BMP180;57391;51.306;22.680;2023-07-29T02:05:29;99004.60;;;17.60
70050;BMP180;57391;51.306;22.680;2023-07-29T02:07:56;99009.80;;;17.60
70050;BMP180;57391;51.306;22.680;2023-07-29T02:10:23;99009.60;;;17.60
70050;BMP180;57391;51.306;22.680;2023-07-29T02:12:50;99011.00;;;17.68
70050;BMP180;57391;51.306;22.680;2023-07-29T02:15:17;99008.60;;;17.70
70050;BMP180;57391;51.306;22.680;2023-07-29T02:17:43;99011.00;;;17.70
70050;BMP180;57391;51.306;22.680;2023-07-29T02:20:11;99012.60;;;17.70
70050;BMP180;57391;51.306;22.680;2023-07-29T02:22:38;99015.60;;;17.74
70050;BMP180;57391;51.306;22.680;2023-07-29T02:25:05;99018.80;;;17.78
70050;BMP180;57391;51.306;22.680;2023-07-29T02:27:32;99022.80;;;17.80
70050;BMP180;57391;51.306;22.680;2023-07-29T02:30:00;99029.20;;;17.80
70050;BMP180;57391;51.306;22.680;2023-07-29T02:32:27;99028.40;;;17.80
70050;BMP180;57391;51.306;22.680;2023-07-29T02:34:54;99028.40;;;17.80
70050;BMP180;57391;51.306;22.680;2023-07-29T02:37:20;99024.00;;;17.80
70050;BMP180;57391;51.306;22.680;2023-07-29T02:39:47;99029.00;;;17.80
70050;BMP180;57391;51.306;22.680;2023-07-29T02:42:14;99038.20;;;17.82
70050;BMP180;57391;51.306;22.680;2023-07-29T02:44:41;99037.20;;;17.90
70050;BMP180;57391;51.306;22.680;2023-07-29T02:47:08;99041.20;;;17.90
70050;BMP180;57391;51.306;22.680;2023-07-29T02:49:35;99044.20;;;17.90
70050;BMP180;57391;51.306;22.680;2023-07-29T02:52:02;99041.60;;;18.00
70050;BMP180;57391;51.306;22.680;2023-07-29T02:54:28;99050.00;;;18.00
70050;BMP180;57391;51.306;22.680;2023-07-29T02:56:55;99046.00;;;18.00
70050;BMP180;57391;51.306;22.680;2023-07-29T02:59:22;99056.20;;;18.10
70050;BMP180;57391;51.306;22.680;2023-07-29T03:01:49;99054.00;;;18.10
70050;BMP180;57391;51.306;22.680;2023-07-29T03:04:16;99058.00;;;18.14
70050;BMP180;57391;51.306;22.680;2023-07-29T03:06:43;99056.60;;;18.18
70050;BMP180;57391;51.306;22.680;2023-07-29T03:09:10;99062.60;;;18.20
70050;BMP180;57391;51.306;22.680;2023-07-29T03:11:37;99064.20;;;18.20
70050;BMP180;57391;51.306;22.680;2023-07-29T03:14:03;99063.20;;;18.28
70050;BMP180;57391;51.306;22.680;2023-07-29T03:16:30;99059.80;;;18.30
70050;BMP180;57391;51.306;22.680;2023-07-29T03:18:57;99061.80;;;18.30
70050;BMP180;57391;51.306;22.680;2023-07-29T03:21:26;99064.60;;;18.40
70050;BMP180;57391;51.306;22.680;2023-07-29T03:23:53;99065.00;;;18.40
70050;BMP180;57391;51.306;22.680;2023-07-29T03:26:20;99070.00;;;18.40
70050;BMP180;57391;51.306;22.680;2023-07-29T03:28:48;99077.40;;;18.42
70050;BMP180;57391;51.306;22.680;2023-07-29T03:31:14;99078.20;;;18.50
70050;BMP180;57391;51.306;22.680;2023-07-29T03:33:42;99075.00;;;18.50
70050;BMP180;57391;51.306;22.680;2023-07-29T03:36:09;99080.40;;;18.50
70050;BMP180;57391;51.306;22.680;2023-07-29T03:38:36;99084.60;;;18.54
70050;BMP180;57391;51.306;22.680;2023-07-29T03:41:09;99084.20;;;18.60
70050;BMP180;57391;51.306;22.680;2023-07-29T03:43:36;99090.00;;;18.60
70050;BMP180;57391;51.306;22.680;2023-07-29T03:46:03;99088.60;;;18.60
70050;BMP180;57391;51.306;22.680;2023-07-29T03:48:30;99089.40;;;18.56
70050;BMP180;57391;51.306;22.680;2023-07-29T03:50:57;99092.80;;;18.54
70050;BMP180;57391;51.306;22.680;2023-07-29T03:53:24;99092.00;;;18.54
70050;BMP180;57391;51.306;22.680;2023-07-29T03:55:51;99092.20;;;18.50
70050;BMP180;57391;51.306;22.680;2023-07-29T03:58:18;99099.00;;;18.50
70050;BMP180;57391;51.306;22.680;2023-07-29T04:00:45;99103.00;;;18.50
70050;BMP180;57391;51.306;22.680;2023-07-29T04:03:12;99103.80;;;18.54
70050;BMP180;57391;51.306;22.680;2023-07-29T04:05:39;99108.60;;;18.60
70050;BMP180;57391;51.306;22.680;2023-07-29T04:08:06;99106.80;;;18.60
70050;BMP180;57391;51.306;22.680;2023-07-29T04:10:33;99105.20;;;18.60
70050;BMP180;57391;51.306;22.680;2023-07-29T04:13:01;99107.40;;;18.60
70050;BMP180;57391;51.306;22.680;2023-07-29T04:15:28;99113.40;;;18.60
70050;BMP180;57391;51.306;22.680;2023-07-29T04:17:56;99113.20;;;18.60
70050;BMP180;57391;51.306;22.680;2023-07-29T04:20:23;99117.80;;;18.62
70050;BMP180;57391;51.306;22.680;2023-07-29T04:22:49;99120.40;;;18.60
70050;BMP180;57391;51.306;22.680;2023-07-29T04:25:16;99122.00;;;18.60
70050;BMP180;57391;51.306;22.680;2023-07-29T04:27:43;99125.60;;;18.62
70050;BMP180;57391;51.306;22.680;2023-07-29T04:30:10;99124.00;;;18.60
70050;BMP180;57391;51.306;22.680;2023-07-29T04:32:37;99126.00;;;18.68
70050;BMP180;57391;51.306;22.680;2023-07-29T04:35:08;99134.00;;;18.70
70050;BMP180;57391;51.306;22.680;2023-07-29T04:37:37;99131.40;;;18.70
70050;BMP180;57391;51.306;22.680;2023-07-29T04:40:04;99127.20;;;18.70
70050;BMP180;57391;51.306;22.680;2023-07-29T04:42:31;99132.00;;;18.70
70050;BMP180;57391;51.306;22.680;2023-07-29T04:44:58;99140.00;;;18.80
70050;BMP180;57391;51.306;22.680;2023-07-29T04:47:25;99146.20;;;18.80
70050;BMP180;57391;51.306;22.680;2023-07-29T04:49:52;99143.80;;;18.80
70050;BMP180;57391;51.306;22.680;2023-07-29T04:52:19;99147.00;;;18.80
70050;BMP180;57391;51.306;22.680;2023-07-29T04:54:46;99150.20;;;18.90
70050;BMP180;57391;51.306;22.680;2023-07-29T04:57:13;99155.00;;;18.90
70050;BMP180;57391;51.306;22.680;2023-07-29T04:59:40;99156.00;;;18.94
70050;BMP180;57391;51.306;22.680;2023-07-29T05:02:06;99160.60;;;19.00
70050;BMP180;57391;51.306;22.680;2023-07-29T05:04:33;99161.20;;;19.00
70050;BMP180;57391;51.306;22.680;2023-07-29T05:07:00;99165.00;;;19.00
70050;BMP180;57391;51.306;22.680;2023-07-29T05:09:27;99159.80;;;19.00
70050;BMP180;57391;51.306;22.680;2023-07-29T05:11:54;99159.80;;;19.08
70050;BMP180;57391;51.306;22.680;2023-07-29T05:14:21;99162.40;;;19.10
70050;BMP180;57391;51.306;22.680;2023-07-29T05:16:49;99166.20;;;19.14
70050;BMP180;57391;51.306;22.680;2023-07-29T05:19:16;99170.40;;;19.20
70050;BMP180;57391;51.306;22.680;2023-07-29T05:21:43;99167.20;;;19.20
70050;BMP180;57391;51.306;22.680;2023-07-29T05:24:10;99171.60;;;19.20
70050;BMP180;57391;51.306;22.680;2023-07-29T05:26:37;99176.40;;;19.28
70050;BMP180;57391;51.306;22.680;2023-07-29T05:29:03;99175.80;;;19.30
70050;BMP180;57391;51.306;22.680;2023-07-29T05:31:30;99175.80;;;19.30
70050;BMP180;57391;51.306;22.680;2023-07-29T05:33:58;99173.40;;;19.30
70050;BMP180;57391;51.306;22.680;2023-07-29T05:36:25;99175.80;;;19.40
70050;BMP180;57391;51.306;22.680;2023-07-29T05:38:52;99173.60;;;19.40
70050;BMP180;57391;51.306;22.680;2023-07-29T05:41:20;99177.20;;;19.40
70050;BMP180;57391;51.306;22.680;2023-07-29T05:43:47;99177.00;;;19.50
70050;BMP180;57391;51.306;22.680;2023-07-29T05:46:18;99170.40;;;19.50
70050;BMP180;57391;51.306;22.680;2023-07-29T05:48:45;99171.60;;;19.60
70050;BMP180;57391;51.306;22.680;2023-07-29T05:51:12;99171.40;;;19.64
70050;BMP180;57391;51.306;22.680;2023-07-29T05:53:40;99174.20;;;19.70
70050;BMP180;57391;51.306;22.680;2023-07-29T05:56:06;99170.00;;;19.88
70050;BMP180;57391;51.306;22.680;2023-07-29T05:58:33;99172.40;;;20.10
70050;BMP180;57391;51.306;22.680;2023-07-29T06:01:01;99177.20;;;20.22
70050;BMP180;57391;51.306;22.680;2023-07-29T06:03:28;99177.40;;;20.30
70050;BMP180;57391;51.306;22.680;2023-07-29T06:05:55;99180.60;;;20.30
70050;BMP180;57391;51.306;22.680;2023-07-29T06:08:21;99181.60;;;20.30
70050;BMP180;57391;51.306;22.680;2023-07-29T06:10:49;99179.80;;;20.38
70050;BMP180;57391;51.306;22.680;2023-07-29T06:13:16;99180.00;;;20.50
70050;BMP180;57391;51.306;22.680;2023-07-29T06:15:43;99186.40;;;20.60
70050;BMP180;57391;51.306;22.680;2023-07-29T06:18:10;99193.80;;;20.70
70050;BMP180;57391;51.306;22.680;2023-07-29T06:20:37;99195.40;;;20.78
70050;BMP180;57391;51.306;22.680;2023-07-29T06:23:04;99199.60;;;20.80
70050;BMP180;57391;51.306;22.680;2023-07-29T06:25:31;99194.60;;;20.80
70050;BMP180;57391;51.306;22.680;2023-07-29T06:27:58;99199.80;;;20.80
70050;BMP180;57391;51.306;22.680;2023-07-29T06:30:25;99203.40;;;20.80
70050;BMP180;57391;51.306;22.680;2023-07-29T06:32:52;99204.60;;;20.80
70050;BMP180;57391;51.306;22.680;2023-07-29T06:35:19;99203.60;;;20.80
70050;BMP180;57391;51.306;22.680;2023-07-29T06:37:46;99208.40;;;20.90
70050;BMP180;57391;51.306;22.680;2023-07-29T06:40:13;99215.20;;;21.00
70050;BMP180;57391;51.306;22.680;2023-07-29T06:42:40;99216.60;;;21.20
70050;BMP180;57391;51.306;22.680;2023-07-29T06:45:08;99219.40;;;21.30
70050;BMP180;57391;51.306;22.680;2023-07-29T06:47:35;99217.20;;;21.40
70050;BMP180;57391;51.306;22.680;2023-07-29T06:50:01;99218.80;;;21.40
70050;BMP180;57391;51.306;22.680;2023-07-29T06:52:29;99221.20;;;21.40
70050;BMP180;57391;51.306;22.680;2023-07-29T06:54:56;99224.20;;;21.40
70050;BMP180;57391;51.306;22.680;2023-07-29T06:57:23;99228.40;;;21.40
70050;BMP180;57391;51.306;22.680;2023-07-29T06:59:49;99223.20;;;21.40
70050;BMP180;57391;51.306;22.680;2023-07-29T07:02:16;99224.80;;;21.60
70050;BMP180;57391;51.306;22.680;2023-07-29T07:04:43;99227.20;;;21.80
70050;BMP180;57391;51.306;22.680;2023-07-29T07:07:10;99228.60;;;21.90
70050;BMP180;57391;51.306;22.680;2023-07-29T07:09:37;99227.40;;;21.98
70050;BMP180;57391;51.306;22.680;2023-07-29T07:12:04;99229.20;;;22.46
70050;BMP180;57391;51.306;22.680;2023-07-29T07:14:31;99231.80;;;23.04
70050;BMP180;57391;51.306;22.680;2023-07-29T07:16:58;99231.40;;;23.50
70050;BMP180;57391;51.306;22.680;2023-07-29T07:19:25;99230.80;;;23.86
70050;BMP180;57391;51.306;22.680;2023-07-29T07:21:52;99226.40;;;24.42
70050;BMP180;57391;51.306;22.680;2023-07-29T07:24:18;99234.00;;;24.56
70050;BMP180;57391;51.306;22.680;2023-07-29T07:26:45;99230.80;;;24.50
70050;BMP180;57391;51.306;22.680;2023-07-29T07:29:12;99232.60;;;24.48
70050;BMP180;57391;51.306;22.680;2023-07-29T07:31:39;99225.40;;;24.50
70050;BMP180;57391;51.306;22.680;2023-07-29T07:34:06;99229.20;;;24.88
70050;BMP180;57391;51.306;22.680;2023-07-29T07:36:33;99231.80;;;25.24
70050;BMP180;57391;51.306;22.680;2023-07-29T07:38:59;99230.80;;;25.60
70050;BMP180;57391;51.306;22.680;2023-07-29T07:41:26;99230.00;;;26.00
70050;BMP180;57391;51.306;22.680;2023-07-29T07:43:53;99232.20;;;26.20
70050;BMP180;57391;51.306;22.680;2023-07-29T07:46:20;99229.80;;;26.30
70050;BMP180;57391;51.306;22.680;2023-07-29T07:48:47;99228.00;;;26.30
70050;BMP180;57391;51.306;22.680;2023-07-29T07:51:14;99235.60;;;26.30
70050;BMP180;57391;51.306;22.680;2023-07-29T07:53:40;99230.80;;;26.20
70050;BMP180;57391;51.306;22.680;2023-07-29T07:56:07;99236.80;;;26.10
70050;BMP180;57391;51.306;22.680;2023-07-29T07:58:34;99233.00;;;26.00
70050;BMP180;57391;51.306;22.680;2023-07-29T08:01:06;99238.00;;;25.80
70050;BMP180;57391;51.306;22.680;2023-07-29T08:03:34;99240.20;;;25.50
70050;BMP180;57391;51.306;22.680;2023-07-29T08:06:02;99243.80;;;25.64
70050;BMP180;57391;51.306;22.680;2023-07-29T08:08:29;99244.80;;;25.80
70050;BMP180;57391;51.306;22.680;2023-07-29T08:10:59;99243.80;;;26.10
70050;BMP180;57391;51.306;22.680;2023-07-29T08:13:26;99242.20;;;26.20
70050;BMP180;57391;51.306;22.680;2023-07-29T08:15:53;99243.60;;;26.00
70050;BMP180;57391;51.306;22.680;2023-07-29T08:18:20;99238.20;;;26.10
70050;BMP180;57391;51.306;22.680;2023-07-29T08:21:00;99241.40;;;26.30
70050;BMP180;57391;51.306;22.680;2023-07-29T08:23:35;99237.40;;;26.20
70050;BMP180;57391;51.306;22.680;2023-07-29T08:26:04;99238.00;;;26.30
70050;BMP180;57391;51.306;22.680;2023-07-29T08:28:37;99235.80;;;26.52
70050;BMP180;57391;51.306;22.680;2023-07-29T08:31:05;99239.80;;;26.78
70050;BMP180;57391;51.306;22.680;2023-07-29T08:33:33;99246.40;;;26.90
70050;BMP180;57391;51.306;22.680;2023-07-29T08:36:01;99243.20;;;26.90
70050;BMP180;57391;51.306;22.680;2023-07-29T08:38:28;99241.80;;;27.00
70050;BMP180;57391;51.306;22.680;2023-07-29T08:41:16;99242.00;;;27.20
70050;BMP180;57391;51.306;22.680;2023-07-29T08:44:12;99243.20;;;27.40
70050;BMP180;57391;51.306;22.680;2023-07-29T08:46:40;99245.60;;;27.50
70050;BMP180;57391;51.306;22.680;2023-07-29T08:49:07;99245.00;;;27.60
70050;BMP180;57391;51.306;22.680;2023-07-29T08:51:36;99247.40;;;27.40
70050;BMP180;57391;51.306;22.680;2023-07-29T08:54:03;99248.60;;;27.50
70050;BMP180;57391;51.306;22.680;2023-07-29T08:56:32;99250.40;;;27.60
70050;BMP180;57391;51.306;22.680;2023-07-29T08:59:02;99246.60;;;27.68
70050;BMP180;57391;51.306;22.680;2023-07-29T09:01:31;99247.80;;;27.78
70050;BMP180;57391;51.306;22.680;2023-07-29T09:03:59;99251.80;;;27.54
70050;BMP180;57391;51.306;22.680;2023-07-29T09:08:20;99240.60;;;27.22
70050;BMP180;57391;51.306;22.680;2023-07-29T09:10:48;99237.80;;;27.20
70050;BMP180;57391;51.306;22.680;2023-07-29T09:13:15;99235.80;;;27.20
70050;BMP180;57391;51.306;22.680;2023-07-29T09:15:42;99238.00;;;27.30
70050;BMP180;57391;51.306;22.680;2023-07-29T09:18:19;99232.20;;;27.40
70050;BMP180;57391;51.306;22.680;2023-07-29T09:20:48;99238.20;;;27.50
70050;BMP180;57391;51.306;22.680;2023-07-29T09:23:16;99237.60;;;27.70
70050;BMP180;57391;51.306;22.680;2023-07-29T09:25:46;99229.60;;;27.80
70050;BMP180;57391;51.306;22.680;2023-07-29T09:28:16;99235.40;;;27.80
70050;BMP180;57391;51.306;22.680;2023-07-29T09:30:46;99230.80;;;27.80
70050;BMP180;57391;51.306;22.680;2023-07-29T09:33:13;99234.40;;;27.90
70050;BMP180;57391;51.306;22.680;2023-07-29T09:35:42;99235.00;;;27.92
70050;BMP180;57391;51.306;22.680;2023-07-29T09:38:14;99240.00;;;28.06
70050;BMP180;57391;51.306;22.680;2023-07-29T09:40:42;99234.60;;;28.20
70050;BMP180;57391;51.306;22.680;2023-07-29T09:43:11;99233.60;;;28.32
70050;BMP180;57391;51.306;22.680;2023-07-29T09:45:38;99229.40;;;28.50
70050;BMP180;57391;51.306;22.680;2023-07-29T09:48:05;99228.80;;;28.50
70050;BMP180;57391;51.306;22.680;2023-07-29T09:50:36;99229.00;;;28.50
70050;BMP180;57391;51.306;22.680;2023-07-29T09:53:03;99226.40;;;28.60
70050;BMP180;57391;51.306;22.680;2023-07-29T09:55:33;99223.40;;;28.60
70050;BMP180;57391;51.306;22.680;2023-07-29T09:58:01;99220.20;;;28.60
70050;BMP180;57391;51.306;22.680;2023-07-29T10:00:32;99211.40;;;28.60
70050;BMP180;57391;51.306;22.680;2023-07-29T10:02:59;99219.00;;;28.54
70050;BMP180;57391;51.306;22.680;2023-07-29T10:05:29;99220.40;;;28.60
70050;BMP180;57391;51.306;22.680;2023-07-29T10:07:56;99221.40;;;28.70
70050;BMP180;57391;51.306;22.680;2023-07-29T10:10:23;99215.20;;;28.42
70050;BMP180;57391;51.306;22.680;2023-07-29T10:12:51;99219.80;;;28.40
70050;BMP180;57391;51.306;22.680;2023-07-29T10:15:21;99221.00;;;28.20
70050;BMP180;57391;51.306;22.680;2023-07-29T10:17:48;99229.00;;;28.24
70050;BMP180;57391;51.306;22.680;2023-07-29T10:20:17;99228.20;;;28.36
70050;BMP180;57391;51.306;22.680;2023-07-29T10:22:47;99223.20;;;28.40
70050;BMP180;57391;51.306;22.680;2023-07-29T10:25:39;99221.20;;;28.50
70050;BMP180;57391;51.306;22.680;2023-07-29T10:28:12;99227.00;;;28.60
70050;BMP180;57391;51.306;22.680;2023-07-29T10:30:40;99226.80;;;28.70
70050;BMP180;57391;51.306;22.680;2023-07-29T10:33:07;99230.80;;;28.74
70050;BMP180;57391;51.306;22.680;2023-07-29T10:35:35;99230.00;;;28.60
70050;BMP180;57391;51.306;22.680;2023-07-29T10:38:03;99227.00;;;28.54
70050;BMP180;57391;51.306;22.680;2023-07-29T10:43:27;99216.80;;;28.60
70050;BMP180;57391;51.306;22.680;2023-07-29T10:45:56;99221.80;;;28.50
70050;BMP180;57391;51.306;22.680;2023-07-29T10:51:34;99225.60;;;28.30
70050;BMP180;57391;51.306;22.680;2023-07-29T10:54:11;99220.00;;;28.30
70050;BMP180;57391;51.306;22.680;2023-07-29T10:56:47;99224.40;;;28.30
70050;BMP180;57391;51.306;22.680;2023-07-29T11:02:02;99220.40;;;28.22
70050;BMP180;57391;51.306;22.680;2023-07-29T11:04:50;99226.80;;;28.20
70050;BMP180;57391;51.306;22.680;2023-07-29T11:17:57;99219.40;;;28.50
70050;BMP180;57391;51.306;22.680;2023-07-29T11:20:30;99218.60;;;28.54
70050;BMP180;57391;51.306;22.680;2023-07-29T11:23:00;99212.80;;;28.60
70050;BMP180;57391;51.306;22.680;2023-07-29T11:25:29;99214.80;;;28.60
70050;BMP180;57391;51.306;22.680;2023-07-29T11:27:59;99214.20;;;28.60
70050;BMP180;57391;51.306;22.680;2023-07-29T11:30:26;99212.80;;;28.60
70050;BMP180;57391;51.306;22.680;2023-07-29T11:32:55;99215.40;;;28.70
70050;BMP180;57391;51.306;22.680;2023-07-29T11:35:23;99209.00;;;28.60
70050;BMP180;57391;51.306;22.680;2023-07-29T11:37:52;99201.00;;;28.60
70050;BMP180;57391;51.306;22.680;2023-07-29T11:40:21;99198.40;;;28.50
70050;BMP180;57391;51.306;22.680;2023-07-29T11:42:50;99192.20;;;28.40
70050;BMP180;57391;51.306;22.680;2023-07-29T11:45:21;99195.60;;;28.42
70050;BMP180;57391;51.306;22.680;2023-07-29T11:47:48;99188.40;;;28.50
70050;BMP180;57391;51.306;22.680;2023-07-29T11:50:15;99191.80;;;28.60
70050;BMP180;57391;51.306;22.680;2023-07-29T11:52:45;99191.40;;;28.70
70050;BMP180;57391;51.306;22.680;2023-07-29T11:55:14;99194.80;;;28.68
70050;BMP180;57391;51.306;22.680;2023-07-29T11:57:43;99196.60;;;28.50
70050;BMP180;57391;51.306;22.680;2023-07-29T12:00:11;99187.80;;;28.40
70050;BMP180;57391;51.306;22.680;2023-07-29T12:02:41;99184.00;;;28.40
70050;BMP180;57391;51.306;22.680;2023-07-29T12:05:13;99187.80;;;28.50
70050;BMP180;57391;51.306;22.680;2023-07-29T12:07:43;99186.00;;;28.58
70050;BMP180;57391;51.306;22.680;2023-07-29T12:10:11;99187.40;;;28.60
70050;BMP180;57391;51.306;22.680;2023-07-29T12:12:48;99186.80;;;28.60
70050;BMP180;57391;51.306;22.680;2023-07-29T12:15:29;99190.00;;;28.60
70050;BMP180;57391;51.306;22.680;2023-07-29T12:17:58;99186.80;;;28.70
70050;BMP180;57391;51.306;22.680;2023-07-29T12:20:26;99180.80;;;28.74
70050;BMP180;57391;51.306;22.680;2023-07-29T12:23:00;99180.80;;;28.78
70050;BMP180;57391;51.306;22.680;2023-07-29T12:25:32;99179.40;;;28.80
70050;BMP180;57391;51.306;22.680;2023-07-29T12:28:04;99180.20;;;28.86
70050;BMP180;57391;51.306;22.680;2023-07-29T12:30:32;99176.40;;;28.80
70050;BMP180;57391;51.306;22.680;2023-07-29T12:32:59;99178.20;;;28.74
70050;BMP180;57391;51.306;22.680;2023-07-29T12:35:35;99176.40;;;28.70
70050;BMP180;57391;51.306;22.680;2023-07-29T12:38:02;99178.80;;;28.60
70050;BMP180;57391;51.306;22.680;2023-07-29T12:40:29;99180.80;;;28.52
70050;BMP180;57391;51.306;22.680;2023-07-29T12:42:56;99173.00;;;28.40
70050;BMP180;57391;51.306;22.680;2023-07-29T12:47:27;99164.20;;;28.22
70050;BMP180;57391;51.306;22.680;2023-07-29T12:49:55;99159.60;;;28.30
70050;BMP180;57391;51.306;22.680;2023-07-29T12:52:23;99158.40;;;28.30
70050;BMP180;57391;51.306;22.680;2023-07-29T12:54:49;99165.00;;;28.40
70050;BMP180;57391;51.306;22.680;2023-07-29T12:57:16;99158.00;;;28.40
70050;BMP180;57391;51.306;22.680;2023-07-29T12:59:43;99162.20;;;28.40
70050;BMP180;57391;51.306;22.680;2023-07-29T13:02:10;99161.20;;;28.30
70050;BMP180;57391;51.306;22.680;2023-07-29T13:04:36;99163.40;;;28.20
70050;BMP180;57391;51.306;22.680;2023-07-29T13:07:04;99163.00;;;28.12
70050;BMP180;57391;51.306;22.680;2023-07-29T13:09:31;99160.60;;;28.20
70050;BMP180;57391;51.306;22.680;2023-07-29T13:11:58;99160.40;;;28.20
70050;BMP180;57391;51.306;22.680;2023-07-29T13:14:25;99165.40;;;28.10
70050;BMP180;57391;51.306;22.680;2023-07-29T13:16:53;99159.40;;;28.00
70050;BMP180;57391;51.306;22.680;2023-07-29T13:19:19;99155.80;;;27.98
70050;BMP180;57391;51.306;22.680;2023-07-29T13:21:46;99158.80;;;28.00
70050;BMP180;57391;51.306;22.680;2023-07-29T13:24:13;99150.00;;;28.10
70050;BMP180;57391;51.306;22.680;2023-07-29T13:26:40;99147.60;;;28.10
70050;BMP180;57391;51.306;22.680;2023-07-29T13:29:08;99142.60;;;28.20
70050;BMP180;57391;51.306;22.680;2023-07-29T13:31:35;99144.40;;;28.10
70050;BMP180;57391;51.306;22.680;2023-07-29T13:34:02;99142.20;;;28.10
70050;BMP180;57391;51.306;22.680;2023-07-29T13:36:29;99140.80;;;28.10
70050;BMP180;57391;51.306;22.680;2023-07-29T13:38:56;99138.80;;;28.14
70050;BMP180;57391;51.306;22.680;2023-07-29T13:41:23;99137.60;;;28.10
70050;BMP180;57391;51.306;22.680;2023-07-29T13:43:49;99136.80;;;28.10
70050;BMP180;57391;51.306;22.680;2023-07-29T13:46:16;99134.60;;;28.10
70050;BMP180;57391;51.306;22.680;2023-07-29T13:48:43;99136.80;;;27.94
70050;BMP180;57391;51.306;22.680;2023-07-29T13:51:10;99132.60;;;27.90
70050;BMP180;57391;51.306;22.680;2023-07-29T13:53:37;99125.80;;;27.92
70050;BMP180;57391;51.306;22.680;2023-07-29T13:56:04;99125.20;;;28.00
70050;BMP180;57391;51.306;22.680;2023-07-29T13:58:31;99121.40;;;28.10
70050;BMP180;57391;51.306;22.680;2023-07-29T14:00:58;99116.20;;;28.20
70050;BMP180;57391;51.306;22.680;2023-07-29T14:03:25;99113.60;;;28.14
70050;BMP180;57391;51.306;22.680;2023-07-29T14:05:52;99109.60;;;28.02
70050;BMP180;57391;51.306;22.680;2023-07-29T14:08:19;99108.00;;;28.08
70050;BMP180;57391;51.306;22.680;2023-07-29T14:10:45;99110.00;;;28.20
70050;BMP180;57391;51.306;22.680;2023-07-29T14:13:12;99107.80;;;28.20
70050;BMP180;57391;51.306;22.680;2023-07-29T14:15:39;99105.00;;;28.20
70050;BMP180;57391;51.306;22.680;2023-07-29T14:18:06;99104.40;;;28.20
70050;BMP180;57391;51.306;22.680;2023-07-29T14:20:33;99103.80;;;28.30
70050;BMP180;57391;51.306;22.680;2023-07-29T14:23:00;99104.40;;;28.30
70050;BMP180;57391;51.306;22.680;2023-07-29T14:25:27;99101.20;;;28.40
70050;BMP180;57391;51.306;22.680;2023-07-29T14:27:54;99094.20;;;28.40
70050;BMP180;57391;51.306;22.680;2023-07-29T14:30:21;99089.60;;;28.40
70050;BMP180;57391;51.306;22.680;2023-07-29T14:32:48;99085.40;;;28.40